KNTD/NTD METAR and TAF weather

Enter ICAO airport designator
Station Type Date Time Source
KNTD METAR 2020/09/19 05:52 UTC NOAA

KNTD 190552Z 31003KT 5SM HZ FEW200 19/14 A2987 RMK AO2 SLP115 T01890144 10233 20189 51005 $


Station Type Date Time Source
KNTD Decoded METAR 2020/09/19 05:52 UTC NOAA

NAWCWPNS POINT MUGU, CA, CA, United States (KNTD) 34-07N 119-07W 2M
Sep 19, 2020 - 01:52 AM EDT / 2020.09.19 0552 UTC
Wind: from the NW (310 degrees) at 3 MPH (3 KT):0
Visibility: 5 mile(s):0
Sky conditions: mostly clear
Weather: haze
Temperature: 66.0 F (18.9 C)
Dew Point: 57.9 F (14.4 C)
Relative Humidity: 75%
Pressure (altimeter): 29.87 in. Hg (1011 hPa)
Pressure tendency: 0.01 inches (0.5 hPa) higher than three hours ago
ob: KNTD 190552Z 31003KT 5SM HZ FEW200 19/14 A2987 RMK AO2 SLP115 T01890144 10233 20189 51005
cycle: 6

Station Type Date Time Source
KNTD TAF 2020/09/18 23:03 UTC NOAA

TAF TAF KNTD 1823/1923 26009KT 9000 HZ FEW150 SCT250 QNH2979INS
FM190300 29008KT 8000 HZ FEW150 FEW250 QNH2977INS
TEMPO 1908/1914 6000 BR FEW010
FM191800 27011KT 9999 FEW250 QNH2982INS AUTOMATED SENSOR METWATCH 1906 TIL 1913 T14/1911Z T24/1921Z FS30159

Example: see airport list